Roberts Field Redmond US
ICAO: KRDM
IATA: RDM
Category: Medium
Scheduled Services: Yes

Elevation: 3080 ft
TransAlt. 18000 ft.

Airport Communications:
ASOS:119.025
SEATTLE CNTR:128.15
CTAF:124.5
GND:121.8
MC MINNVILLE RDO:122.5
REDMOND TWR:124.5
UNICOM:122.95

KRDM Zoom In..

If you have problems with the map follow the link
https://www.worldairports.se/pages/airport.php?
ICAO=KRDM

Runways:

(A) RW 04 length 7038 ft width 150 ft
---- / hdg 42

(B) RW 10 length 7006 ft width 100 ft
---- / hdg 104

(C) RW 22 length 7038 ft width 150 ft
ILS 109.10 / hdg 222

(D) RW 28 length 7006 ft width 100 ft
---- / hdg 284

Location; KRDM
Day. 29 / Time. 15.56 Zulu
* Altimeter: 30.23
* Temperature: 01° c. 33.8°f.
* Wind from: 000° Speed 00 kn.
Dewpoint: -01° c.
Visibility: 10 Statute Miles.
Clouds: Broken 5000 ft.
Clouds: Overcast 6500 ft.

KRDM 291556Z 00000KT 10SM BKN050 OVC065 01/M01 A3023 RMK AO2 SLP254 T00111006


Wind - Calm.

 
 
jpsmedia worldairports.se 2020   terms of use